Pagrindinis puslapis
METAR-TAF:

METAR-TAF

Oro uostai :

Mačala, Ekvadoras

platuma: 03-26-07S, ilguma: 079-58-40W, Aukštis: 52 m

Dabartinis oras

Ataskaita buvo paskelbta 2 valandos ir 35 minutes, ne 23:00 UTC
Vėjas 4 kt iš Šiaurės Vakarų
Temperatūra 26°C
Drėgmė 79%
Slėgis 1011 hPa
Matomumas 10 km arba daugiau
Su prošvaistėmis ne aukštis 2000 ft

METAR: SERO 162300Z 31004KT 9999 BKN020 26/22 Q1011 RMK A2985

Laikas: 20:35 (01:35 UTC)


TAF: trūkstamas

Orai ataskaitas ir orų prognozės (METAR, TAF).

turimą stotys yra geltonos ir raudonos taškus žemėlapyje.

Perkelti pele per norėdami pamatyti stoties vardą.

Tada spustelėkite, norėdami matyti oro stebėjimo ir prognozės.

Norėdami pakeisti žemėlapį: spustelėkite ant žalios mygtukų su juodo kryžiaus žemyn,; žalią mygtuką su brūkšneliu, jei norite nutolinti; arba žalių rodyklių gretimoms žemėlapius.


METAR-TAF: